Time;durP1;ratioP1;P1;durP2;ratioP2;P2;SDS_P1;SDS_P2;PMS_P1;PMS_P2;Temp;Humidity;BMP_temperature;BMP_pressure;BME280_temperature;BME280_humidity;BME280_pressure;Samples;Min_cycle;Max_cycle;Signal;HPM_P1;HPM_P2
2022/04/25 00:01:50;;;;;;;64.45;37.42;;;;;;;10.81;87.05;98946.16;5103632;28;20035;-76
2022/04/25 00:04:16;;;;;;;69.25;37.65;;;;;;;10.73;87.02;98945.91;5114894;28;20054;-76
2022/04/25 00:06:41;;;;;;;53.38;34.83;;;;;;;10.71;87.26;98947.69;5095746;28;20571;-76
2022/04/25 00:09:07;;;;;;;57.97;34.67;;;;;;;10.60;87.97;98939.13;5130583;27;20076;-77
2022/04/25 00:11:32;;;;;;;56.45;33.63;;;;;;;10.54;88.16;98939.13;5096278;28;20515;-76
2022/04/25 00:13:57;;;;;;;58.03;35.30;;;;;;;10.58;88.79;98945.34;5096177;28;20023;-76
2022/04/25 00:16:23;;;;;;;60.92;34.25;;;;;;;10.69;87.70;98944.59;5114478;28;20032;-77
2022/04/25 00:18:49;;;;;;;58.08;33.33;;;;;;;10.67;87.51;98952.84;5114318;28;20480;-75
2022/04/25 00:21:14;;;;;;;55.70;33.55;;;;;;;10.56;87.74;98927.22;5114666;28;20035;-75
2022/04/25 00:23:40;;;;;;;54.58;32.95;;;;;;;10.67;87.09;98955.72;5096174;28;20051;-76
2022/04/25 00:26:06;;;;;;;49.15;32.17;;;;;;;10.66;87.57;98966.31;5114603;28;20057;-75
2022/04/25 00:28:31;;;;;;;54.20;33.08;;;;;;;10.52;87.93;98958.75;5096476;28;20023;-76
2022/04/25 00:30:57;;;;;;;54.28;32.35;;;;;;;10.57;88.34;98958.00;5114366;28;20361;-75
2022/04/25 00:33:22;;;;;;;57.40;32.90;;;;;;;10.65;87.20;98947.69;5095961;28;20047;-76
2022/04/25 00:35:47;;;;;;;56.75;32.70;;;;;;;10.59;87.99;98948.97;5094106;28;20030;-75
2022/04/25 00:38:13;;;;;;;58.63;33.50;;;;;;;10.52;88.17;98953.06;5128055;27;20045;-76
2022/04/25 00:40:39;;;;;;;57.13;32.55;;;;;;;10.54;88.33;98944.81;5127726;27;20516;-76
2022/04/25 00:43:05;;;;;;;56.50;33.42;;;;;;;10.56;87.45;98958.53;5093684;28;20136;-76
2022/04/25 00:45:33;;;;;;;51.30;30.33;;;;;;;10.56;87.23;98953.59;5127725;27;20050;-76
2022/04/25 00:47:58;;;;;;;44.92;28.30;;;;;;;10.49;87.75;98956.94;5093520;28;20084;-76
2022/04/25 00:50:24;;;;;;;46.17;26.58;;;;;;;10.57;87.79;98955.16;5112148;28;20040;-76
2022/04/25 00:52:49;;;;;;;41.92;27.27;;;;;;;10.56;87.71;98952.84;5129338;27;20361;-76
2022/04/25 00:55:14;;;;;;;40.97;27.15;;;;;;;10.52;87.66;98955.13;5095599;28;20024;-76
2022/04/25 00:57:40;;;;;;;41.28;28.10;;;;;;;10.51;88.29;98957.19;5113833;28;20069;-75
2022/04/25 01:00:10;;;;;;;40.30;26.15;;;;;;;10.54;88.13;98958.25;5113898;28;20030;-75
2022/04/25 01:02:36;;;;;;;44.00;27.15;;;;;;;10.50;88.40;98949.97;5129722;28;20460;-75
2022/04/25 01:05:04;;;;;;;40.90;27.65;;;;;;;10.47;88.18;98945.28;5095691;28;20038;-75
2022/04/25 01:07:30;;;;;;;40.97;26.27;;;;;;;10.52;88.68;98950.22;5113716;28;20488;-75
2022/04/25 01:09:56;;;;;;;43.28;27.23;;;;;;;10.45;89.29;98941.41;5095532;28;20030;-76
2022/04/25 01:12:21;;;;;;;34.75;23.98;;;;;;;10.45;88.60;98935.72;5095582;28;20024;-76
2022/04/25 01:14:46;;;;;;;32.03;22.35;;;;;;;10.49;88.68;98934.19;5095371;28;20034;-76
2022/04/25 01:17:12;;;;;;;31.20;21.30;;;;;;;10.62;88.11;98923.06;5113606;28;20479;-77
2022/04/25 01:19:37;;;;;;;33.53;22.83;;;;;;;10.61;87.99;98932.13;5116765;28;20038;-77
2022/04/25 01:22:07;;;;;;;36.15;23.92;;;;;;;10.63;87.73;98932.41;5118100;28;20038;-77
2022/04/25 01:27:17;;;;;;;30.20;20.08;;;;;;;10.60;87.50;98931.38;5117948;28;20092;-75
2022/04/25 01:29:51;;;;;;;32.47;20.08;;;;;;;10.54;87.63;98924.88;5099577;28;20032;-76
2022/04/25 01:32:17;;;;;;;29.83;18.65;;;;;;;10.60;87.18;98936.28;5117881;28;20026;-75
2022/04/25 01:34:43;;;;;;;30.63;20.23;;;;;;;10.65;87.44;98929.84;5117426;28;20484;-76
2022/04/25 01:37:09;;;;;;;30.10;19.15;;;;;;;10.57;87.59;98931.59;5118219;28;20027;-76
2022/04/25 01:39:39;;;;;;;33.75;21.08;;;;;;;10.59;87.86;98946.91;5108869;28;20031;-76
2022/04/25 01:42:06;;;;;;;34.42;21.20;;;;;;;10.65;87.91;98941.22;5078796;28;20063;-76
2022/04/25 01:44:31;;;;;;;37.40;22.90;;;;;;;10.59;87.70;98938.34;5062228;28;20107;-76
2022/04/25 01:46:57;;;;;;;38.88;23.05;;;;;;;10.64;87.78;98946.13;5078769;28;20058;-76
2022/04/25 01:49:23;;;;;;;38.53;22.52;;;;;;;10.62;87.27;98943.00;5097238;28;20479;-76
2022/04/25 01:51:48;;;;;;;40.58;24.10;;;;;;;10.58;87.99;98944.56;5078976;28;20032;-76
2022/04/25 01:54:18;;;;;;;41.75;23.90;;;;;;;10.64;87.65;98940.44;5096662;28;20446;-76
2022/04/25 01:56:43;;;;;;;39.47;23.92;;;;;;;10.71;86.62;98937.09;5078834;28;20051;-76
2022/04/25 01:59:08;;;;;;;38.60;24.55;;;;;;;10.70;86.63;98937.63;5096906;28;20038;-76
2022/04/25 02:01:34;;;;;;;38.70;25.73;;;;;;;10.61;87.02;98934.97;5062004;28;20030;-75
2022/04/25 02:03:59;;;;;;;35.95;24.20;;;;;;;10.65;87.61;98941.22;5096969;28;20052;-76
2022/04/25 02:06:25;;;;;;;42.53;24.42;;;;;;;10.65;87.81;98944.06;5096600;28;20052;-76
2022/04/25 02:08:50;;;;;;;39.33;24.75;;;;;;;10.64;87.93;98937.59;5096464;28;20062;-76
2022/04/25 02:11:25;;;;;;;40.03;25.92;;;;;;;10.64;87.34;98942.50;5096469;28;20032;-76
2022/04/25 02:13:51;;;;;;;36.53;24.63;;;;;;;10.63;87.45;98933.19;5064349;28;20144;-76
2022/04/25 02:16:20;;;;;;;41.50;25.48;;;;;;;10.69;87.71;98936.84;5078614;28;20107;-77
2022/04/25 02:18:46;;;;;;;37.28;23.40;;;;;;;10.71;87.48;98942.00;5061957;28;20122;-76
2022/04/25 02:21:11;;;;;;;39.03;25.00;;;;;;;10.73;87.75;98942.28;5078527;28;20110;-77
2022/04/25 02:23:38;;;;;;;36.20;23.23;;;;;;;10.72;87.14;98947.19;5096622;28;20045;-77
2022/04/25 02:26:05;;;;;;;35.85;23.83;;;;;;;10.73;87.39;98953.66;5061724;28;20532;-77
2022/04/25 02:28:31;;;;;;;32.50;20.95;;;;;;;10.72;87.14;98947.19;5061809;28;20028;-77
2022/04/25 02:30:57;;;;;;;34.28;21.50;;;;;;;10.68;87.38;98946.66;5077907;28;20036;-77
2022/04/25 02:33:23;;;;;;;35.78;22.33;;;;;;;10.70;87.56;98951.84;5078577;28;20084;-77
2022/04/25 02:35:49;;;;;;;35.05;22.30;;;;;;;10.61;88.26;98952.84;5096266;28;20028;-76
2022/04/25 02:38:15;;;;;;;32.72;21.80;;;;;;;10.63;87.84;98952.34;5077946;28;20028;-76
2022/04/25 02:40:40;;;;;;;32.83;19.65;;;;;;;10.65;87.82;98947.69;5077709;28;20020;-76
2022/04/25 02:43:05;;;;;;;29.33;19.17;;;;;;;10.67;88.44;98955.72;5077987;28;20020;-76
2022/04/25 02:45:31;;;;;;;27.17;18.88;;;;;;;10.68;87.94;98952.34;5096262;28;20112;-76
2022/04/25 02:47:56;;;;;;;27.48;17.48;;;;;;;10.71;88.42;98951.31;5077942;28;20036;-76
2022/04/25 02:50:22;;;;;;;23.23;16.83;;;;;;;10.74;87.44;98955.22;5061179;28;20032;-76
2022/04/25 02:52:49;;;;;;;23.30;15.45;;;;;;;10.77;87.73;98959.88;5095845;28;20027;-76
2022/04/25 02:55:14;;;;;;;19.92;14.68;;;;;;;10.78;87.73;98956.53;5061028;28;20432;-76
2022/04/25 02:57:40;;;;;;;18.48;14.32;;;;;;;10.79;87.47;98954.47;5095836;28;20503;-76
2022/04/25 03:00:06;;;;;;;16.45;12.77;;;;;;;10.79;86.93;98957.31;5096037;28;20057;-76
2022/04/25 03:02:32;;;;;;;16.98;12.07;;;;;;;10.78;86.93;98953.69;5077530;28;20028;-76
2022/04/25 03:04:57;;;;;;;17.20;10.95;;;;;;;10.76;86.80;98964.78;5060707;28;20020;-76
2022/04/25 03:07:23;;;;;;;11.90;9.52;;;;;;;10.80;87.14;98965.31;5077264;28;20060;-75
2022/04/25 03:09:48;;;;;;;14.43;10.95;;;;;;;10.85;86.77;98969.50;5077189;28;20023;-76
2022/04/25 03:12:13;;;;;;;16.70;10.52;;;;;;;10.86;86.82;98973.88;5095801;28;20024;-76
2022/04/25 03:14:39;;;;;;;13.55;10.23;;;;;;;10.87;86.87;98977.50;5095229;28;20028;-76
2022/04/25 03:17:05;;;;;;;16.90;10.32;;;;;;;10.80;86.41;98985.25;5111063;28;20031;-76
2022/04/25 03:19:30;;;;;;;16.80;10.88;;;;;;;10.78;86.62;98979.31;5095139;28;20060;-76
2022/04/25 03:21:55;;;;;;;18.45;11.23;;;;;;;10.72;86.82;98987.06;5077436;28;20094;-76
2022/04/25 03:24:21;;;;;;;22.98;11.00;;;;;;;10.78;86.77;98984.22;5095339;28;20464;-76
2022/04/25 03:26:46;;;;;;;13.95;10.88;;;;;;;10.79;86.72;98983.72;5095085;28;20380;-76
2022/04/25 03:29:13;;;;;;;13.05;10.25;;;;;;;10.79;86.34;98982.94;5077266;28;20137;-76
2022/04/25 03:31:39;;;;;;;12.48;10.43;;;;;;;10.82;86.63;98982.69;5076779;28;20020;-76
2022/04/25 03:34:04;;;;;;;11.85;9.95;;;;;;;10.86;86.06;98987.34;5094870;28;20043;-76
2022/04/25 03:36:31;;;;;;;12.80;9.27;;;;;;;10.88;86.15;98988.41;5094828;28;20089;-77
2022/04/25 03:38:56;;;;;;;15.52;11.88;;;;;;;10.85;85.96;98998.00;5094700;28;20058;-76
2022/04/25 03:41:22;;;;;;;16.15;11.52;;;;;;;10.81;86.09;98986.03;5075900;28;20028;-76
2022/04/25 03:43:47;;;;;;;21.45;12.57;;;;;;;10.86;86.09;98995.88;5076739;28;20067;-76
2022/04/25 03:46:13;;;;;;;18.58;12.25;;;;;;;10.85;85.67;98992.28;5076501;28;20070;-77
2022/04/25 03:48:41;;;;;;;15.82;12.10;;;;;;;10.86;85.45;98993.81;5076463;28;20111;-77
2022/04/25 03:51:06;;;;;;;17.88;12.25;;;;;;;10.83;86.26;98989.94;5094603;28;20032;-77
2022/04/25 03:53:31;;;;;;;20.08;14.30;;;;;;;10.89;85.38;98997.72;5076309;28;20028;-77
2022/04/25 03:58:41;;;;;;;15.68;12.70;;;;;;;10.93;85.65;99003.94;5079704;28;20119;-77
2022/04/25 04:01:06;;;;;;;15.77;11.85;;;;;;;10.93;85.85;99001.88;5076273;28;20110;-76
2022/04/25 04:03:35;;;;;;;12.00;10.55;;;;;;;10.92;85.84;99008.88;5094289;28;20028;-76
2022/04/25 04:06:00;;;;;;;15.05;11.63;;;;;;;10.96;85.99;99022.84;5075920;28;20057;-76
2022/04/25 04:08:26;;;;;;;16.30;11.50;;;;;;;11.00;85.49;99026.25;5094161;28;20071;-76
2022/04/25 04:10:51;;;;;;;13.95;9.57;;;;;;;11.00;84.73;99029.09;5094522;28;20522;-76
2022/04/25 04:13:17;;;;;;;25.33;11.40;;;;;;;11.00;84.95;99032.72;5094434;28;20478;-76
2022/04/25 04:15:42;;;;;;;11.68;9.98;;;;;;;11.01;85.33;99030.66;5075746;28;20469;-76
2022/04/25 04:18:08;;;;;;;18.83;11.23;;;;;;;11.01;85.10;99031.44;5075993;28;20051;-76
2022/04/25 04:20:35;;;;;;;17.83;13.50;;;;;;;11.02;85.42;99038.69;5093763;28;20116;-76
2022/04/25 04:23:01;;;;;;;14.90;12.30;;;;;;;11.02;85.01;99043.59;5076180;28;20163;-77
2022/04/25 04:25:28;;;;;;;15.10;12.80;;;;;;;11.04;84.37;99043.88;5059092;28;20073;-77
2022/04/25 04:27:54;;;;;;;15.77;12.45;;;;;;;11.04;84.31;99053.22;5075896;28;20123;-77
2022/04/25 04:30:20;;;;;;;18.65;11.05;;;;;;;11.07;83.90;99051.38;5075916;28;20117;-77
2022/04/25 04:32:46;;;;;;;10.73;9.23;;;;;;;11.03;84.18;99051.66;5075864;28;20047;-76
2022/04/25 04:35:15;;;;;;;9.65;7.68;;;;;;;11.00;83.68;99057.59;5059060;28;20032;-77
2022/04/25 04:37:43;;;;;;;12.95;7.40;;;;;;;10.97;83.29;99059.38;5059402;28;20047;-77
2022/04/25 04:42:55;;;;;;;8.70;5.53;;;;;;;10.78;83.35;99063.97;5078603;28;20043;-76
2022/04/25 04:45:21;;;;;;;8.48;5.70;;;;;;;10.71;83.51;99068.06;5075470;28;20345;-76
2022/04/25 04:47:48;;;;;;;18.65;5.82;;;;;;;10.72;83.50;99075.34;5075439;28;20040;-76
2022/04/25 04:50:15;;;;;;;11.60;4.95;;;;;;;10.70;83.81;99074.31;5093505;28;20093;-76
2022/04/25 04:52:53;;;;;;;8.18;5.05;;;;;;;10.67;84.04;99076.09;5075516;28;20032;-76
2022/04/25 04:55:20;;;;;;;9.70;5.35;;;;;;;10.69;83.75;99076.38;5093472;28;20089;-75
2022/04/25 04:57:45;;;;;;;9.23;4.32;;;;;;;10.70;83.92;99077.94;5092662;28;20094;-75
2022/04/25 05:00:15;;;;;;;5.05;3.97;;;;;;;10.76;82.89;99075.09;5092275;28;20412;-75
2022/04/25 05:02:49;;;;;;;5.55;3.47;;;;;;;10.83;83.33;99080.31;5076623;28;20073;-77
2022/04/25 05:05:15;;;;;;;6.00;3.80;;;;;;;10.87;82.52;99094.31;5093301;28;20024;-74
2022/04/25 05:07:40;;;;;;;5.07;3.17;;;;;;;10.89;82.20;99098.22;5041779;28;20052;-75
2022/04/25 05:10:10;;;;;;;5.70;3.45;;;;;;;10.92;81.79;99099.25;5057986;28;20452;-75
2022/04/25 05:12:50;;;;;;;4.78;3.30;;;;;;;10.93;82.78;99107.28;5092361;28;20377;-75
2022/04/25 05:15:18;;;;;;;3.90;2.40;;;;;;;10.87;82.23;99106.47;5090800;28;20495;-76
2022/04/25 05:17:45;;;;;;;3.10;2.75;;;;;;;10.83;82.86;99103.09;5089929;28;20024;-74
2022/04/25 05:20:12;;;;;;;4.28;3.03;;;;;;;10.82;82.07;99110.06;5041706;28;20458;-76
2022/04/25 05:22:44;;;;;;;3.55;2.53;;;;;;;10.78;82.54;99107.47;5074513;28;20061;-76
2022/04/25 05:25:11;;;;;;;;;;;;;;;10.73;82.87;99122.47;5093075;28;20115;-76
2022/04/25 05:27:38;;;;;;;4.40;2.95;;;;;;;10.64;82.51;99116.19;5073500;28;19967;-78
2022/04/25 05:30:07;;;;;;;5.47;2.80;;;;;;;10.67;82.84;99123.72;5092897;28;20028;-76
2022/04/25 05:32:57;;;;;;;2.88;2.50;;;;;;;10.64;83.46;99125.53;5113846;28;20035;-77
2022/04/25 05:35:26;;;;;;;4.43;2.22;;;;;;;10.59;82.71;99134.81;5095419;28;20039;-76
2022/04/25 05:37:53;;;;;;;3.15;2.28;;;;;;;10.58;83.14;99138.94;5075709;28;20039;-79
2022/04/25 05:40:27;;;;;;;3.33;2.38;;;;;;;10.51;83.28;99139.41;5095513;28;20114;-77
2022/04/25 05:42:56;;;;;;;3.03;2.33;;;;;;;10.45;83.27;99141.44;5113846;28;20351;-77
2022/04/25 05:45:23;;;;;;;4.25;2.42;;;;;;;10.40;83.17;99145.03;5062075;28;20031;-77
2022/04/25 05:47:56;;;;;;;2.90;2.30;;;;;;;10.37;83.94;99151.72;5115553;28;20521;-78
2022/04/25 05:53:07;;;;;;;3.05;2.58;;;;;;;10.31;83.92;99156.63;5084916;28;20046;-80
2022/04/25 05:55:34;;;;;;;9.02;2.53;;;;;;;10.26;84.84;99158.09;5114087;28;20032;-81
2022/04/25 05:58:02;;;;;;;3.95;2.80;;;;;;;10.25;85.38;99167.94;5060699;28;20039;-82
2022/04/25 06:00:28;;;;;;;3.03;2.40;;;;;;;10.25;85.26;99165.09;5056218;28;20032;-81
2022/04/25 06:02:54;;;;;;;4.32;3.08;;;;;;;10.26;85.16;99163.81;5054852;28;20107;-80
2022/04/25 06:05:22;;;;;;;3.55;2.63;;;;;;;10.24;85.28;99169.22;5077650;28;20043;-81
2022/04/25 06:07:48;;;;;;;3.20;2.85;;;;;;;10.30;84.57;99172.13;5074854;28;20048;-81
2022/04/25 06:10:15;;;;;;;4.53;2.88;;;;;;;10.33;84.36;99173.94;5059133;28;20029;-82
2022/04/25 06:12:49;;;;;;;4.60;2.72;;;;;;;10.31;84.78;99176.53;5058844;28;20038;-82
2022/04/25 06:15:21;;;;;;;6.03;3.40;;;;;;;10.34;84.01;99178.38;5075188;28;20363;-82
2022/04/25 06:18:05;;;;;;;3.80;2.90;;;;;;;10.29;83.97;99170.56;5042070;28;20044;-82
2022/04/25 06:20:30;;;;;;;4.35;3.17;;;;;;;10.34;84.70;99178.38;5058114;28;20024;-81
2022/04/25 06:23:06;;;;;;;3.97;2.92;;;;;;;10.30;83.98;99183.50;5075032;28;20090;-78
2022/04/25 06:25:31;;;;;;;3.85;2.72;;;;;;;10.28;83.76;99184.00;5068517;28;20063;-80
2022/04/25 06:28:00;;;;;;;3.88;2.70;;;;;;;10.29;83.94;99187.63;5057768;28;20024;-77
2022/04/25 06:30:32;;;;;;;3.15;2.80;;;;;;;10.33;84.89;99183.28;5076162;28;20418;-77
2022/04/25 06:32:58;;;;;;;3.00;2.55;;;;;;;10.30;84.55;99190.00;5076013;28;20048;-78
2022/04/25 06:35:38;;;;;;;5.28;3.28;;;;;;;10.25;83.35;99190.72;5074748;28;20508;-77
2022/04/25 06:38:06;;;;;;;4.65;3.00;;;;;;;10.23;84.05;99195.34;5091999;28;20081;-85
2022/04/25 06:40:31;;;;;;;5.05;3.22;;;;;;;10.17;83.68;99200.19;5076565;28;20028;-85
2022/04/25 06:42:58;;;;;;;4.13;2.83;;;;;;;10.14;84.06;99199.13;5058554;28;20559;-83
2022/04/25 06:45:25;;;;;;;5.10;2.35;;;;;;;10.17;82.38;99206.66;5075575;28;20070;-84
2022/04/25 06:47:50;;;;;;;3.70;2.75;;;;;;;10.16;83.26;99210.03;5058466;28;20063;-86
2022/04/25 06:50:17;;;;;;;15.43;3.13;;;;;;;10.14;83.33;99210.50;5058066;28;20094;-87
2022/04/25 06:52:44;;;;;;;4.85;2.40;;;;;;;10.16;82.77;99216.47;5074594;28;20055;-82
2022/04/25 06:55:11;;;;;;;2.85;2.55;;;;;;;10.07;82.89;99199.56;5057780;28;20032;-83
2022/04/25 06:57:37;;;;;;;4.15;2.63;;;;;;;10.16;82.72;99215.72;5057503;28;20028;-77
2022/04/25 07:00:04;;;;;;;3.53;2.70;;;;;;;10.12;83.70;99213.06;5073967;28;20040;-80
2022/04/25 07:02:32;;;;;;;4.72;2.78;;;;;;;10.00;83.91;99211.41;5057892;28;20041;-77
2022/04/25 07:04:58;;;;;;;5.72;2.97;;;;;;;10.03;84.15;99212.44;5074170;28;20040;-76
2022/04/25 07:07:25;;;;;;;3.33;2.88;;;;;;;10.18;83.75;99219.63;5059934;28;20263;-77
2022/04/25 07:09:53;;;;;;;5.03;3.17;;;;;;;10.21;83.09;99224.28;5041237;28;20024;-76
2022/04/25 07:12:18;;;;;;;3.65;2.92;;;;;;;10.28;83.53;99235.22;5084007;28;20016;-75
2022/04/25 07:14:43;;;;;;;5.07;3.70;;;;;;;10.34;83.34;99236.06;5077436;28;20370;-79
2022/04/25 07:17:10;;;;;;;3.65;2.67;;;;;;;10.33;82.51;99230.88;5077283;28;20030;-80
2022/04/25 07:19:39;;;;;;;3.80;2.40;;;;;;;10.29;83.02;99233.97;5077084;28;20031;-79
2022/04/25 07:30:31;;;;;;;2.85;2.63;;;;;;;10.45;83.15;99252.47;5040189;28;20103;-72
2022/04/25 07:32:56;;;;;;;3.97;2.83;;;;;;;10.46;81.85;99259.72;5071814;28;20037;-73
2022/04/25 07:35:22;;;;;;;4.00;3.20;;;;;;;10.53;82.16;99269.88;5055917;28;20446;-71
2022/04/25 07:37:47;;;;;;;4.03;3.35;;;;;;;10.38;81.79;99250.06;5056199;28;20033;-73
2022/04/25 07:40:14;;;;;;;3.83;2.97;;;;;;;10.50;81.33;99268.03;5074198;28;20039;-73
2022/04/25 07:42:40;;;;;;;4.22;3.03;;;;;;;10.54;81.32;99275.06;5038550;28;20032;-73
2022/04/25 07:45:07;;;;;;;5.70;3.15;;;;;;;10.60;80.15;99272.28;5076670;28;20008;-72
2022/04/25 07:47:34;;;;;;;5.25;3.13;;;;;;;10.65;81.40;99271.53;5088332;28;20039;-72
2022/04/25 07:50:01;;;;;;;5.55;3.33;;;;;;;10.70;80.90;99273.66;5076390;28;20028;-71
2022/04/25 07:52:28;;;;;;;6.18;3.38;;;;;;;10.73;80.61;99275.47;5059380;28;20072;-73
2022/04/25 07:55:02;;;;;;;4.10;2.95;;;;;;;10.75;79.14;99276.56;5093144;28;20020;-73
2022/04/25 07:57:30;;;;;;;3.45;3.00;;;;;;;10.80;79.58;99287.19;5056613;28;20048;-71
2022/04/25 07:59:57;;;;;;;5.18;3.30;;;;;;;10.83;80.19;99297.59;5022775;28;20024;-72
2022/04/25 08:02:23;;;;;;;5.53;3.92;;;;;;;10.89;78.96;99294.00;5055792;28;20174;-72
2022/04/25 08:04:50;;;;;;;6.45;3.42;;;;;;;10.84;80.11;99304.06;5055904;28;20021;-72
2022/04/25 08:07:16;;;;;;;6.47;2.97;;;;;;;10.80;80.21;99306.38;5051862;28;20128;-72
2022/04/25 08:09:47;;;;;;;5.45;3.17;;;;;;;10.80;80.65;99300.66;5075967;28;20067;-71
2022/04/25 08:18:01;;;;;;;14.43;3.85;;;;;;;11.01;78.71;99310.66;5078407;28;20046;-72
2022/04/25 08:20:28;;;;;;;7.93;3.63;;;;;;;11.10;78.50;99315.41;5075370;28;20052;-72
2022/04/25 08:22:56;;;;;;;13.00;3.60;;;;;;;11.15;78.97;99318.28;5042390;28;20089;-72
2022/04/25 08:25:24;;;;;;;5.57;2.95;;;;;;;11.24;78.03;99318.09;5073092;28;20032;-71
2022/04/25 08:27:49;;;;;;;4.13;2.95;;;;;;;11.32;78.89;99326.16;5083661;28;20381;-71
2022/04/25 08:30:15;;;;;;;3.85;2.55;;;;;;;11.31;78.27;99325.38;5076962;28;20048;-72
2022/04/25 08:32:41;;;;;;;4.50;2.92;;;;;;;11.23;78.09;99332.84;5055910;28;20426;-71
2022/04/25 08:35:09;;;;;;;3.55;2.58;;;;;;;11.15;78.49;99337.47;5072974;28;20145;-72
2022/04/25 08:37:35;;;;;;;4.28;2.78;;;;;;;11.12;78.39;99339.25;5056410;28;20032;-75
2022/04/25 08:40:01;;;;;;;4.35;2.75;;;;;;;11.03;79.00;99350.06;5022852;28;20047;-76
2022/04/25 08:42:29;;;;;;;2.85;2.15;;;;;;;10.91;78.15;99340.63;5038796;28;20036;-80
2022/04/25 08:44:57;;;;;;;4.80;2.88;;;;;;;10.92;78.88;99356.44;5073697;28;20170;-74
2022/04/25 08:47:28;;;;;;;3.97;3.10;;;;;;;10.89;79.45;99362.38;5038738;28;20040;-72
2022/04/25 08:49:57;;;;;;;4.20;2.63;;;;;;;10.91;79.58;99352.03;5039075;28;20115;-72
2022/04/25 08:52:28;;;;;;;4.95;3.35;;;;;;;10.94;78.64;99361.63;5073350;28;20104;-74
2022/04/25 08:54:56;;;;;;;3.83;2.83;;;;;;;10.95;79.59;99378.22;5038814;28;20052;-74
2022/04/25 08:57:28;;;;;;;3.63;3.25;;;;;;;10.99;78.52;99373.09;5055341;28;20040;-74
2022/04/25 08:59:59;;;;;;;;;;;;;;;11.03;78.49;99373.63;5055639;28;20028;-73
2022/04/25 09:02:26;;;;;;;3.78;2.78;;;;;;;11.08;77.79;99374.97;5073362;28;19912;-75
2022/04/25 09:04:52;;;;;;;3.40;2.40;;;;;;;11.07;78.05;99382.72;5056604;28;20094;-76
2022/04/25 09:07:17;;;;;;;5.88;3.22;;;;;;;11.10;78.25;99393.09;5086073;28;20130;-76
2022/04/25 09:09:43;;;;;;;4.40;3.03;;;;;;;11.09;77.98;99391.56;5076068;28;20449;-75
2022/04/25 09:12:12;;;;;;;4.82;3.53;;;;;;;11.06;77.96;99389.72;5087487;28;20067;-76
2022/04/25 09:14:40;;;;;;;4.75;3.28;;;;;;;11.07;78.29;99405.53;5061305;28;20480;-77
2022/04/25 09:17:07;;;;;;;4.90;2.65;;;;;;;11.03;77.83;99409.88;5107943;28;20023;-75
2022/04/25 09:19:36;;;;;;;3.97;3.47;;;;;;;10.96;77.85;99421.72;5096642;28;20051;-78
2022/04/25 09:22:05;;;;;;;3.30;2.65;;;;;;;10.83;78.11;99411.53;5078978;28;20072;-76
2022/04/25 09:24:33;;;;;;;3.42;2.50;;;;;;;10.78;77.27;99417.94;5115126;28;20016;-77
2022/04/25 09:27:08;;;;;;;6.72;2.65;;;;;;;10.85;78.92;99422.44;5078452;28;20052;-75
2022/04/25 09:29:36;;;;;;;3.00;2.55;;;;;;;10.84;78.83;99420.84;5113688;28;20019;-74
2022/04/25 09:32:10;;;;;;;3.45;3.15;;;;;;;10.81;79.83;99430.38;5095332;28;20034;-73
2022/04/25 09:37:43;;;;;;;2.72;2.38;;;;;;;10.72;79.68;99425.66;5061908;28;20127;-73
2022/04/25 09:40:08;;;;;;;3.92;2.80;;;;;;;10.60;80.00;99426.03;5074859;28;20029;-74
2022/04/25 09:42:36;;;;;;;3.60;2.55;;;;;;;10.61;80.99;99430.44;5077006;28;20031;-74
2022/04/25 09:45:03;;;;;;;3.88;2.88;;;;;;;10.64;79.66;99449.38;5076748;28;20080;-74
2022/04/25 09:47:36;;;;;;;2.72;2.45;;;;;;;10.62;79.68;99449.09;5063093;28;20032;-73
2022/04/25 09:50:05;;;;;;;4.38;2.58;;;;;;;10.64;79.93;99444.47;5083651;28;20024;-73
2022/04/25 09:52:32;;;;;;;2.97;2.42;;;;;;;10.64;80.01;99444.47;5076791;28;20048;-72
2022/04/25 09:55:14;;;;;;;4.95;3.08;;;;;;;10.68;79.89;99452.78;5076303;28;20453;-75
2022/04/25 09:57:46;;;;;;;4.10;2.58;;;;;;;10.68;80.61;99450.72;5075564;28;20024;-75
2022/04/25 10:00:13;;;;;;;4.20;2.65;;;;;;;10.70;80.33;99453.88;5075185;28;20056;-76
2022/04/25 10:02:47;;;;;;;4.97;3.13;;;;;;;10.77;80.46;99455.47;5075207;28;20029;-72
2022/04/25 10:05:15;;;;;;;4.75;3.15;;;;;;;10.86;79.13;99454.53;5075200;28;20029;-75
2022/04/25 10:07:41;;;;;;;3.90;2.85;;;;;;;10.86;79.89;99463.06;5090379;28;20047;-73
2022/04/25 10:10:08;;;;;;;7.63;3.47;;;;;;;10.87;79.05;99467.50;5078471;28;20077;-75
2022/04/25 10:12:36;;;;;;;5.50;3.83;;;;;;;10.90;80.62;99467.28;5096312;28;20035;-72
2022/04/25 10:15:02;;;;;;;5.18;3.47;;;;;;;10.81;79.26;99471.06;5096838;28;20039;-77
2022/04/25 10:17:28;;;;;;;4.88;3.33;;;;;;;10.80;79.90;99477.28;5095391;28;20028;-76
2022/04/25 10:19:55;;;;;;;3.67;3.13;;;;;;;10.75;79.55;99481.63;5061923;28;20039;-78
2022/04/25 10:22:21;;;;;;;5.28;3.05;;;;;;;10.83;80.56;99479.09;5078815;28;20024;-76
2022/04/25 10:24:46;;;;;;;4.97;2.97;;;;;;;10.94;80.08;99481.31;5078283;28;20027;-75
2022/04/25 10:27:15;;;;;;;3.30;3.00;;;;;;;11.01;79.37;99472.28;5096175;28;20532;-75
2022/04/25 10:29:46;;;;;;;5.13;3.60;;;;;;;11.05;79.68;99485.03;5077151;28;20048;-78
2022/04/25 10:32:17;;;;;;;7.55;4.70;;;;;;;11.08;78.38;99486.88;5057789;28;20055;-75
2022/04/25 10:34:47;;;;;;;7.55;4.45;;;;;;;11.09;78.50;99494.16;5077447;28;20029;-77
2022/04/25 10:37:44;;;;;;;7.32;4.45;;;;;;;11.21;79.05;99495.03;5075996;28;20470;-77
2022/04/25 10:44:09;;;;;;;6.50;3.80;;;;;;;11.30;77.95;99499.81;5073454;28;20044;-73
2022/04/25 10:46:01;;;;;;;;;;;;;;;11.31;77.66;99504.97;5082694;28;20044;-73
2022/04/25 10:48:28;;;;;;;5.22;3.47;;;;;;;11.34;78.53;99509.69;5075788;28;20269;-75
2022/04/25 10:51:13;;;;;;;6.55;4.50;;;;;;;11.43;78.68;99512.38;5075064;28;20093;-75
2022/04/25 10:54:01;;;;;;;10.60;4.63;;;;;;;11.41;78.56;99508.44;5075481;28;20473;-73
2022/04/25 10:56:36;;;;;;;6.43;4.63;;;;;;;11.46;79.33;99510.56;5073649;28;20032;-74
2022/04/25 10:59:25;;;;;;;6.95;4.28;;;;;;;11.35;79.98;99510.47;5078858;28;20090;-73
2022/04/25 11:01:53;;;;;;;9.57;5.45;;;;;;;11.38;78.77;99520.88;5109680;28;20072;-75
2022/04/25 11:04:20;;;;;;;8.73;4.60;;;;;;;11.44;78.86;99521.72;5107949;28;20482;-72
2022/04/25 11:07:22;;;;;;;8.88;4.43;;;;;;;11.49;79.35;99527.47;5075979;28;20131;-72
2022/04/25 11:09:49;;;;;;;;;;;;;;;11.57;79.00;99530.63;5077047;28;20026;-73
2022/04/25 11:12:15;;;;;;;4.78;3.33;;;;;;;11.58;78.82;99535.06;5095428;28;19912;-74
2022/04/25 11:15:00;;;;;;;6.50;3.47;;;;;;;11.56;77.84;99540.47;5077039;28;20437;-73
2022/04/25 11:17:26;;;;;;;6.90;4.57;;;;;;;11.55;78.12;99538.91;5076875;28;20028;-74
2022/04/25 11:19:54;;;;;;;7.47;4.47;;;;;;;11.57;77.85;99544.91;5077523;28;20024;-73
2022/04/25 11:22:47;;;;;;;10.52;6.20;;;;;;;11.62;78.11;99547.81;5095312;28;20504;-74
2022/04/25 11:25:30;;;;;;;8.30;5.00;;;;;;;11.65;77.73;99552.47;5095799;28;20028;-75
2022/04/25 11:28:14;;;;;;;7.82;4.95;;;;;;;11.69;76.77;99552.28;5095458;28;20028;-74
2022/04/25 11:31:06;;;;;;;6.00;4.45;;;;;;;11.60;77.91;99550.38;5094817;28;20495;-74
2022/04/25 11:33:42;;;;;;;7.38;4.13;;;;;;;11.47;78.10;99561.41;5094876;28;20143;-74
2022/04/25 11:36:10;;;;;;;8.52;5.38;;;;;;;11.46;78.06;99564.75;5076785;28;20024;-74
2022/04/25 11:41:31;;;;;;;7.15;4.85;;;;;;;11.39;78.76;99571.69;5095099;28;20050;-74
2022/04/25 11:43:57;;;;;;;7.97;5.55;;;;;;;11.38;78.84;99572.97;5076770;28;20042;-73
2022/04/25 11:46:24;;;;;;;6.88;4.65;;;;;;;11.38;78.15;99587.22;5076555;28;20023;-73
2022/04/25 11:48:58;;;;;;;10.20;5.55;;;;;;;11.35;78.82;99587.47;5076568;28;20024;-75
2022/04/25 11:51:29;;;;;;;10.27;5.03;;;;;;;11.30;78.84;99593.88;5095249;28;20035;-74
2022/04/25 11:53:58;;;;;;;6.35;4.35;;;;;;;11.25;78.21;99598.22;5094450;28;20476;-73
2022/04/25 11:56:25;;;;;;;7.13;4.72;;;;;;;11.26;78.75;99588.38;5094508;28;20082;-72
2022/04/25 11:58:51;;;;;;;8.40;5.10;;;;;;;11.29;77.60;99595.16;5076271;28;20403;-73
2022/04/25 12:01:33;;;;;;;10.02;5.30;;;;;;;11.22;78.44;99600.00;5059710;28;20028;-74
2022/04/25 12:04:17;;;;;;;10.75;5.43;;;;;;;11.14;78.48;99601.75;5093821;28;20036;-72
2022/04/25 12:06:56;;;;;;;8.98;5.60;;;;;;;11.07;78.27;99609.94;5094281;28;20122;-73